createdAt,value
2023-01-23T00:03:05.326Z,2.40
2023-01-23T00:07:57.017Z,2.45
2023-01-23T00:12:53.377Z,2.51
2023-01-23T00:17:45.703Z,2.51
2023-01-23T00:22:37.413Z,2.51
2023-01-23T00:27:29.229Z,2.53
2023-01-23T00:32:21.666Z,2.46
2023-01-23T00:37:14.082Z,2.39
2023-01-23T00:42:06.172Z,2.36
2023-01-23T00:46:58.976Z,2.32
2023-01-23T00:51:50.806Z,2.29
2023-01-23T00:56:43.050Z,2.25
2023-01-23T01:01:35.216Z,2.21
2023-01-23T01:06:28.830Z,2.17
2023-01-23T01:11:20.561Z,2.09
2023-01-23T01:16:12.573Z,2.03
2023-01-23T01:21:09.072Z,1.99
2023-01-23T01:26:01.564Z,1.96
2023-01-23T01:30:53.286Z,1.91
2023-01-23T01:35:44.998Z,1.85
2023-01-23T01:40:38.046Z,1.80
2023-01-23T01:46:07.436Z,1.73
2023-01-23T01:51:00.722Z,1.66
2023-01-23T01:55:52.840Z,1.57
2023-01-23T02:00:44.624Z,1.53
2023-01-23T02:05:45.547Z,1.51
2023-01-23T02:10:37.528Z,1.48
2023-01-23T02:15:29.330Z,1.46
2023-01-23T02:20:24.870Z,1.42
2023-01-23T02:25:22.884Z,1.40
2023-01-23T02:30:16.251Z,1.40
2023-01-23T02:35:17.467Z,1.39
2023-01-23T02:40:10.101Z,1.42
2023-01-23T02:45:02.204Z,1.42
2023-01-23T02:49:54.076Z,1.41
2023-01-23T02:54:46.701Z,1.42
2023-01-23T02:59:56.755Z,1.43
2023-01-23T03:04:48.511Z,1.45
2023-01-23T03:09:40.321Z,1.49
2023-01-23T03:14:32.452Z,1.48
2023-01-23T03:19:26.763Z,1.45
2023-01-23T03:24:19.772Z,1.42
2023-01-23T03:29:42.227Z,1.40
2023-01-23T03:34:34.219Z,1.33
2023-01-23T03:39:44.760Z,1.28
2023-01-23T03:44:36.555Z,1.27
2023-01-23T03:49:28.507Z,1.26
2023-01-23T03:54:20.171Z,1.24
2023-01-23T03:59:12.067Z,1.23
2023-01-23T04:04:04.733Z,1.20
2023-01-23T04:08:58.293Z,1.18
2023-01-23T04:13:50.397Z,1.17
2023-01-23T04:18:42.224Z,1.19
2023-01-23T04:23:33.913Z,1.17
2023-01-23T04:28:25.761Z,1.14
2023-01-23T04:33:18.680Z,1.13
2023-01-23T04:38:10.377Z,1.09
2023-01-23T04:43:02.188Z,1.12
2023-01-23T04:47:53.911Z,1.07
2023-01-23T04:52:45.814Z,1.06
2023-01-23T04:57:37.493Z,1.01
2023-01-23T05:02:29.305Z,1.01
2023-01-23T05:07:21.085Z,0.97
2023-01-23T05:12:12.759Z,0.94
2023-01-23T05:17:04.471Z,0.94
2023-01-23T05:21:56.295Z,0.89
2023-01-23T05:26:48.098Z,0.93
2023-01-23T05:31:40.010Z,0.93
2023-01-23T05:36:31.840Z,0.91
2023-01-23T05:41:25.656Z,0.92
2023-01-23T05:46:17.939Z,0.95
2023-01-23T05:51:09.829Z,0.99
2023-01-23T05:56:08.590Z,1.02
2023-01-23T06:01:02.809Z,1.10
2023-01-23T06:05:54.534Z,1.14
2023-01-23T06:10:46.277Z,1.16
2023-01-23T06:15:38.356Z,1.18
2023-01-23T06:20:30.158Z,1.18
2023-01-23T06:25:23.018Z,1.18
2023-01-23T06:30:16.693Z,1.20
2023-01-23T06:35:09.042Z,1.25
2023-01-23T06:40:00.823Z,1.28
2023-01-23T06:44:52.675Z,1.35
2023-01-23T06:49:44.363Z,1.41
2023-01-23T06:54:38.950Z,1.42
2023-01-23T06:59:30.753Z,1.39
2023-01-23T07:04:24.805Z,1.38
2023-01-23T07:09:16.490Z,1.39
2023-01-23T07:14:08.300Z,1.36
2023-01-23T07:19:01.644Z,1.30
2023-01-23T07:23:53.414Z,1.27
2023-01-23T07:28:45.240Z,1.25
2023-01-23T07:33:36.927Z,1.24
2023-01-23T07:38:28.970Z,1.25
2023-01-23T07:43:20.622Z,1.22
2023-01-23T07:48:12.564Z,1.22
2023-01-23T07:53:05.941Z,1.20
2023-01-23T07:57:57.884Z,1.17
2023-01-23T08:02:49.519Z,1.12
2023-01-23T08:07:41.341Z,1.11
2023-01-23T08:12:33.493Z,1.10
2023-01-23T08:17:25.249Z,1.10
2023-01-23T08:22:17.050Z,1.09
2023-01-23T08:27:09.004Z,1.09
2023-01-23T08:32:00.733Z,1.09
2023-01-23T08:36:52.639Z,1.09
2023-01-23T08:41:44.587Z,1.10
2023-01-23T08:46:36.475Z,1.15
2023-01-23T08:51:28.364Z,1.17
2023-01-23T08:56:22.319Z,1.23
2023-01-23T09:01:16.104Z,1.25
2023-01-23T09:06:09.256Z,1.29
2023-01-23T09:11:06.282Z,1.29
2023-01-23T09:15:58.527Z,1.35
2023-01-23T09:20:50.481Z,1.39
2023-01-23T09:25:42.891Z,1.40
2023-01-23T09:30:35.209Z,1.45
2023-01-23T09:35:27.215Z,1.46
2023-01-23T09:40:22.732Z,1.53
2023-01-23T09:45:20.369Z,1.57
2023-01-23T09:50:22.128Z,1.61
2023-01-23T09:55:49.270Z,1.65
2023-01-23T10:00:41.038Z,1.69
2023-01-23T10:05:47.129Z,1.73
2023-01-23T10:11:23.628Z,1.79
2023-01-23T10:16:49.422Z,1.86
2023-01-23T10:22:00.998Z,1.91
2023-01-23T10:26:56.336Z,2.00
2023-01-23T10:31:56.436Z,2.08
2023-01-23T10:37:16.153Z,2.29
2023-01-23T10:42:13.767Z,2.63
2023-01-23T10:47:19.990Z,3.11
2023-01-23T10:52:39.226Z,3.58
2023-01-23T10:57:45.265Z,3.78
2023-01-23T11:02:40.897Z,4.06
2023-01-23T11:07:37.995Z,4.34
2023-01-23T11:12:32.722Z,4.57
2023-01-23T11:17:32.685Z,4.45
2023-01-23T11:22:31.997Z,4.37
2023-01-23T11:27:30.088Z,4.36
2023-01-23T11:32:24.404Z,4.59
2023-01-23T11:37:24.578Z,4.80
2023-01-23T11:42:18.081Z,5.14
2023-01-23T11:47:15.529Z,5.45
2023-01-23T11:52:37.028Z,5.73
2023-01-23T11:58:06.140Z,5.56
2023-01-23T12:03:06.894Z,5.45
2023-01-23T12:08:22.082Z,5.35
2023-01-23T12:13:13.719Z,5.24
2023-01-23T12:18:34.938Z,5.17
2023-01-23T12:23:37.778Z,5.08
2023-01-23T12:28:51.913Z,5.01
2023-01-23T12:33:59.733Z,4.98
2023-01-23T12:39:28.796Z,5.12
2023-01-23T12:44:29.453Z,5.12
2023-01-23T12:49:39.704Z,5.08
2023-01-23T12:55:02.103Z,5.08
2023-01-23T13:00:09.908Z,5.10
2023-01-23T13:05:14.084Z,5.12
2023-01-23T13:10:51.892Z,5.17
2023-01-23T13:15:44.244Z,5.12
2023-01-23T13:21:14.675Z,5.07
2023-01-23T13:26:15.689Z,4.99
2023-01-23T13:31:40.588Z,5.07
2023-01-23T13:36:35.334Z,5.23
2023-01-23T13:41:34.058Z,5.28
2023-01-23T14:28:51.691Z,5.88
2023-01-23T14:33:45.469Z,5.88
2023-01-23T14:38:37.764Z,5.81
2023-01-23T14:43:29.922Z,5.74
2023-01-23T14:48:22.276Z,5.71
2023-01-23T14:53:16.173Z,5.64
2023-01-23T14:58:16.145Z,5.56
2023-01-23T15:03:12.630Z,5.51
2023-01-23T15:08:21.219Z,5.47
2023-01-23T15:13:19.072Z,5.39
2023-01-23T15:18:24.293Z,5.27
2023-01-23T15:23:18.736Z,5.23
2023-01-23T15:28:30.327Z,5.22
2023-01-23T15:33:31.336Z,5.20
2023-01-23T15:38:26.572Z,5.16
2023-01-23T15:43:19.455Z,5.15
2023-01-23T15:48:11.212Z,5.15
2023-01-23T15:53:03.198Z,5.13
2023-01-23T15:57:56.137Z,5.07
2023-01-23T16:02:56.321Z,5.00
2023-01-23T16:07:49.217Z,4.91
2023-01-23T16:12:42.701Z,4.80
2023-01-23T16:17:42.081Z,4.73
2023-01-23T16:22:35.326Z,4.64
2023-01-23T16:27:27.879Z,4.53
2023-01-23T16:32:20.075Z,4.44
2023-01-23T16:37:16.511Z,4.36
2023-01-23T16:42:19.385Z,4.28
2023-01-23T16:47:11.131Z,4.22
2023-01-23T16:52:04.511Z,4.15
2023-01-23T16:56:58.212Z,4.05
2023-01-23T17:01:52.236Z,3.98
2023-01-23T17:06:44.309Z,3.92
2023-01-23T17:11:46.524Z,3.86
2023-01-23T17:16:38.402Z,3.80
2023-01-23T17:21:34.085Z,3.76
2023-01-23T17:26:25.833Z,3.75
2023-01-23T17:31:23.720Z,3.68
2023-01-23T17:36:15.769Z,3.65
2023-01-23T17:41:12.832Z,3.59
2023-01-23T17:46:05.160Z,3.51
2023-01-23T17:50:57.807Z,3.51
2023-01-23T17:55:51.496Z,3.43
2023-01-23T18:00:45.338Z,3.41
2023-01-23T18:05:37.082Z,3.42
2023-01-23T18:10:29.880Z,3.36
2023-01-23T18:15:35.333Z,3.36
2023-01-23T18:20:28.527Z,3.31
2023-01-23T18:25:21.952Z,3.25
2023-01-23T18:30:35.611Z,3.21
2023-01-23T18:35:43.234Z,3.21
2023-01-23T18:40:34.901Z,3.22
2023-01-23T18:45:27.922Z,3.20
2023-01-23T18:50:22.943Z,3.19
2023-01-23T18:55:38.776Z,3.20
2023-01-23T19:00:52.381Z,3.19
2023-01-23T19:05:45.918Z,3.14
2023-01-23T19:10:48.575Z,3.10
2023-01-23T19:15:40.652Z,3.06
2023-01-23T19:20:41.722Z,3.02
2023-01-23T19:25:33.896Z,2.98
2023-01-23T19:30:26.605Z,2.95
2023-01-23T19:35:18.691Z,2.93
2023-01-23T19:40:12.685Z,2.88
2023-01-23T19:45:04.888Z,2.87
2023-01-23T19:49:56.607Z,2.84
2023-01-23T19:54:48.376Z,2.83
2023-01-23T19:59:40.472Z,2.84
2023-01-23T20:04:32.538Z,2.84
2023-01-23T20:09:24.294Z,2.82
2023-01-23T20:14:16.341Z,2.79
2023-01-23T20:19:08.435Z,2.80
2023-01-23T20:24:00.420Z,2.82
2023-01-23T20:28:56.281Z,2.82
2023-01-23T20:33:48.057Z,2.79
2023-01-23T20:38:40.732Z,2.81
2023-01-23T20:43:32.656Z,2.78
2023-01-23T20:48:24.414Z,2.81
2023-01-23T20:53:32.130Z,2.83
2023-01-23T20:58:50.443Z,2.81
2023-01-23T21:03:42.652Z,2.83
2023-01-23T21:08:35.276Z,2.81
2023-01-23T21:13:26.989Z,2.73
2023-01-23T21:18:18.795Z,2.65
2023-01-23T21:23:10.635Z,2.56
2023-01-23T21:28:02.472Z,2.53
2023-01-23T21:32:54.206Z,2.46
2023-01-23T21:37:45.959Z,2.38
2023-01-23T21:42:37.776Z,2.32
2023-01-23T21:47:29.439Z,2.31
2023-01-23T21:52:21.319Z,2.28
2023-01-23T21:57:13.133Z,2.27
2023-01-23T22:02:04.861Z,2.25
2023-01-23T22:06:58.615Z,2.23
2023-01-23T22:11:50.467Z,2.21
2023-01-23T22:16:50.786Z,2.17
2023-01-23T22:21:43.904Z,2.14
2023-01-23T22:26:35.732Z,2.12
2023-01-23T22:31:27.603Z,2.08
2023-01-23T22:36:20.219Z,2.09
2023-01-23T22:41:15.221Z,2.13
2023-01-23T22:46:19.276Z,2.11
2023-01-23T22:51:17.596Z,2.06
2023-01-23T22:56:10.144Z,2.06
2023-01-23T23:01:02.296Z,2.06
2023-01-23T23:06:02.587Z,2.09
2023-01-23T23:11:02.954Z,2.13
2023-01-23T23:15:55.238Z,2.19
2023-01-23T23:20:47.120Z,2.20
2023-01-23T23:25:39.051Z,2.28
2023-01-23T23:30:30.808Z,2.29
2023-01-23T23:35:22.867Z,2.20
2023-01-23T23:40:15.090Z,2.08
2023-01-23T23:45:08.813Z,2.01
2023-01-23T23:50:00.646Z,2.01
2023-01-23T23:54:52.456Z,1.96
2023-01-23T23:59:44.196Z,1.91
